Time;durP1;ratioP1;P1;durP2;ratioP2;P2;SDS_P1;SDS_P2;PMS_P1;PMS_P2;Temp;Humidity;BMP_temperature;BMP_pressure;BME280_temperature;BME280_humidity;BME280_pressure;Samples;Min_cycle;Max_cycle;Signal;HPM_P1;HPM_P2
2021/09/17 00:01:43;;;;;;;13.63;6.43;;;21.50;53.00;;;;;;5116386;28;20449;-84
2021/09/17 00:04:10;;;;;;;9.90;7.20;;;21.30;52.40;;;;;;5115302;27;20446;-84
2021/09/17 00:06:37;;;;;;;7.53;5.90;;;21.30;51.00;;;;;;5115496;28;20560;-84
2021/09/17 00:09:05;;;;;;;5.60;5.10;;;21.10;52.90;;;;;;5115208;28;20891;-84
2021/09/17 00:11:32;;;;;;;13.90;6.30;;;21.00;54.30;;;;;;5115935;28;20525;-84
2021/09/17 00:14:00;;;;;;;8.53;7.40;;;21.20;53.90;;;;;;5116342;28;20864;-84
2021/09/17 00:16:27;;;;;;;8.90;6.37;;;21.40;53.30;;;;;;5116307;28;20508;-84
2021/09/17 00:18:54;;;;;;;21.50;8.60;;;21.50;52.40;;;;;;5118506;28;20843;-84
2021/09/17 00:21:21;;;;;;;19.50;9.07;;;21.30;50.40;;;;;;5119728;28;20528;-84
2021/09/17 00:23:48;;;;;;;8.53;6.67;;;21.00;50.80;;;;;;5119612;28;20446;-84
2021/09/17 00:26:16;;;;;;;15.60;7.40;;;21.10;52.20;;;;;;5119409;28;20526;-84
2021/09/17 00:28:43;;;;;;;10.70;7.90;;;21.00;51.90;;;;;;5119337;27;20524;-84
2021/09/17 00:31:10;;;;;;;6.80;5.70;;;21.00;52.60;;;;;;5118676;28;20477;-84
2021/09/17 00:33:37;;;;;;;9.73;6.40;;;21.30;54.30;;;;;;5120236;28;20477;-85
2021/09/17 00:36:05;;;;;;;9.70;6.87;;;21.70;53.20;;;;;;5118754;28;21023;-84
2021/09/17 00:38:32;;;;;;;14.23;8.47;;;21.60;53.10;;;;;;5120568;27;20448;-84
2021/09/17 00:40:58;;;;;;;12.83;9.17;;;21.20;50.00;;;;;;5120080;28;20446;-84
2021/09/17 00:43:27;;;;;;;13.33;8.33;;;20.80;51.30;;;;;;5138412;28;20449;-86
2021/09/17 00:45:54;;;;;;;9.50;7.77;;;20.70;52.30;;;;;;5139851;27;20541;-86
2021/09/17 00:48:21;;;;;;;7.83;6.13;;;20.70;51.20;;;;;;5138762;28;20446;-85
2021/09/17 00:50:48;;;;;;;24.33;8.80;;;20.80;54.80;;;;;;5122169;28;20438;-84
2021/09/17 00:53:14;;;;;;;10.67;8.03;;;21.10;52.70;;;;;;5136150;28;20460;-86
2021/09/17 00:55:41;;;;;;;11.40;6.43;;;21.00;52.50;;;;;;5139201;28;20438;-86
2021/09/17 00:58:08;;;;;;;11.63;6.90;;;21.00;53.80;;;;;;5139223;28;20434;-86
2021/09/17 01:00:37;;;;;;;8.27;6.20;;;21.00;52.50;;;;;;5139841;28;20436;-84
2021/09/17 01:03:04;;;;;;;10.13;6.07;;;21.10;53.50;;;;;;5122690;28;20542;-84
2021/09/17 01:05:31;;;;;;;9.13;6.57;;;21.20;53.40;;;;;;5114324;28;20527;-84
2021/09/17 01:07:58;;;;;;;8.10;5.47;;;21.20;52.80;;;;;;5114211;28;20544;-84
2021/09/17 01:10:25;;;;;;;13.17;8.20;;;21.30;52.10;;;;;;5113936;28;20481;-84
2021/09/17 01:12:52;;;;;;;10.10;7.90;;;21.00;50.80;;;;;;5113997;28;20499;-83
2021/09/17 01:15:19;;;;;;;11.20;8.70;;;20.70;51.50;;;;;;5114307;28;20521;-83
2021/09/17 01:17:48;;;;;;;9.50;6.90;;;20.70;52.30;;;;;;5113925;28;20993;-83
2021/09/17 01:20:18;;;;;;;12.27;7.47;;;20.70;52.80;;;;;;5113406;28;20425;-84
2021/09/17 01:22:48;;;;;;;9.00;6.73;;;20.90;53.70;;;;;;5114342;28;20870;-83
2021/09/17 01:25:16;;;;;;;8.30;6.20;;;21.10;53.00;;;;;;5113946;28;20566;-83
2021/09/17 01:27:44;;;;;;;10.23;6.90;;;21.20;53.50;;;;;;5114248;28;20451;-83
2021/09/17 01:30:12;;;;;;;11.83;7.10;;;21.10;52.70;;;;;;5113862;28;20564;-83
2021/09/17 01:32:41;;;;;;;11.60;8.00;;;20.90;52.20;;;;;;5114458;28;20446;-83
2021/09/17 01:35:10;;;;;;;8.47;5.90;;;21.00;51.20;;;;;;5114437;28;20466;-83
2021/09/17 01:37:37;;;;;;;10.37;7.60;;;21.00;52.60;;;;;;5112997;28;20478;-83
2021/09/17 01:40:07;;;;;;;11.40;8.70;;;20.90;52.50;;;;;;5116276;28;20465;-83
2021/09/17 01:42:34;;;;;;;11.53;7.63;;;20.70;52.10;;;;;;5117420;28;20462;-83
2021/09/17 01:45:01;;;;;;;11.20;7.13;;;20.70;53.00;;;;;;5116369;28;20503;-83
2021/09/17 01:47:28;;;;;;;11.73;7.17;;;20.80;53.10;;;;;;5116447;28;20481;-83
2021/09/17 01:49:55;;;;;;;11.17;8.83;;;20.90;52.10;;;;;;5117778;28;20520;-83
2021/09/17 01:52:22;;;;;;;9.53;7.00;;;20.90;51.30;;;;;;5117413;28;20453;-83
2021/09/17 01:54:49;;;;;;;15.23;9.67;;;21.00;52.60;;;;;;5117655;28;20492;-82
2021/09/17 01:57:18;;;;;;;12.07;7.47;;;21.00;51.40;;;;;;5115982;28;20507;-82
2021/09/17 01:59:44;;;;;;;9.00;6.60;;;21.00;52.10;;;;;;5115386;28;20502;-83
2021/09/17 02:02:11;;;;;;;6.87;5.67;;;21.00;52.70;;;;;;5115000;28;20449;-83
2021/09/17 02:04:38;;;;;;;9.83;7.10;;;21.20;53.30;;;;;;5116264;28;20449;-83
2021/09/17 02:07:05;;;;;;;11.00;7.47;;;20.90;52.00;;;;;;5114990;28;20496;-83
2021/09/17 02:09:32;;;;;;;14.27;7.73;;;20.80;50.90;;;;;;5115648;28;20477;-83
2021/09/17 02:12:00;;;;;;;7.67;5.50;;;20.70;50.80;;;;;;5114353;28;20453;-83
2021/09/17 02:14:28;;;;;;;15.63;8.40;;;20.80;54.10;;;;;;5114932;28;20811;-83
2021/09/17 02:16:55;;;;;;;23.93;8.23;;;20.80;51.00;;;;;;5115526;28;20485;-83
2021/09/17 02:19:22;;;;;;;13.27;8.87;;;20.70;52.20;;;;;;5116580;28;20502;-83
2021/09/17 02:21:52;;;;;;;9.03;6.30;;;20.80;52.60;;;;;;5118853;28;20438;-82
2021/09/17 02:24:19;;;;;;;8.43;5.93;;;20.80;52.40;;;;;;5117037;28;20449;-83
2021/09/17 02:26:46;;;;;;;12.47;6.50;;;20.90;54.10;;;;;;5116584;28;20863;-83
2021/09/17 02:29:12;;;;;;;11.20;8.50;;;21.00;52.60;;;;;;5113534;28;20557;-83
2021/09/17 02:31:41;;;;;;;20.27;10.43;;;20.90;53.70;;;;;;5112745;28;20559;-83
2021/09/17 02:34:08;;;;;;;8.63;5.43;;;21.10;54.00;;;;;;5113832;28;20469;-83
2021/09/17 02:36:34;;;;;;;10.43;5.63;;;21.20;53.80;;;;;;5113711;28;20472;-83
2021/09/17 02:39:02;;;;;;;6.83;5.63;;;21.30;52.60;;;;;;5114741;28;20879;-83
2021/09/17 02:41:29;;;;;;;13.97;8.70;;;21.10;51.90;;;;;;5118285;28;20570;-83
2021/09/17 02:43:56;;;;;;;16.13;6.93;;;20.90;54.20;;;;;;5117721;28;21031;-83
2021/09/17 02:46:23;;;;;;;10.57;5.70;;;21.10;53.80;;;;;;5114973;28;20489;-83
2021/09/17 02:48:51;;;;;;;10.83;5.73;;;21.00;52.60;;;;;;5113912;28;20517;-83
2021/09/17 02:51:18;;;;;;;8.23;5.33;;;21.10;53.90;;;;;;5112068;28;21004;-82
2021/09/17 02:53:45;;;;;;;13.73;7.60;;;21.10;53.40;;;;;;5115620;28;20453;-84
2021/09/17 02:56:12;;;;;;;8.70;6.57;;;21.30;52.20;;;;;;5120268;28;20538;-83
2021/09/17 02:58:39;;;;;;;19.60;7.77;;;21.40;52.60;;;;;;5119050;28;20918;-83
2021/09/17 03:01:06;;;;;;;18.50;6.30;;;21.30;53.20;;;;;;5121475;28;20437;-83
2021/09/17 03:03:33;;;;;;;9.37;6.47;;;21.10;51.80;;;;;;5128436;28;20445;-84
2021/09/17 03:06:01;;;;;;;8.10;6.13;;;20.80;51.60;;;;;;5125331;28;20453;-84
2021/09/17 03:08:28;;;;;;;5.40;5.03;;;20.60;51.90;;;;;;5123569;28;20480;-84
2021/09/17 03:10:57;;;;;;;13.10;7.50;;;20.90;53.50;;;;;;5123441;28;20477;-84
2021/09/17 03:13:24;;;;;;;14.10;7.70;;;20.70;52.20;;;;;;5123614;28;20524;-84
2021/09/17 03:15:52;;;;;;;11.50;6.90;;;20.60;52.50;;;;;;5123628;28;20469;-84
2021/09/17 03:18:19;;;;;;;13.80;9.23;;;20.60;51.80;;;;;;5123675;28;20456;-84
2021/09/17 03:20:48;;;;;;;14.70;7.07;;;20.50;51.80;;;;;;5121550;28;20472;-84
2021/09/17 03:23:17;;;;;;;14.30;6.00;;;20.30;53.30;;;;;;5124167;27;20453;-84
2021/09/17 03:25:44;;;;;;;11.80;7.10;;;20.60;55.30;;;;;;5123986;28;20531;-84
2021/09/17 03:28:11;;;;;;;10.43;6.57;;;20.80;52.40;;;;;;5123877;28;20434;-84
2021/09/17 03:30:38;;;;;;;7.73;5.60;;;20.80;54.10;;;;;;5123097;28;20477;-84
2021/09/17 03:33:05;;;;;;;7.70;5.30;;;21.00;53.90;;;;;;5123876;28;20444;-84
2021/09/17 03:35:32;;;;;;;13.43;7.43;;;21.00;52.60;;;;;;5124196;27;20779;-84
2021/09/17 03:37:59;;;;;;;8.57;5.17;;;20.80;50.80;;;;;;5121807;28;20548;-84
2021/09/17 03:40:27;;;;;;;7.20;6.63;;;20.40;53.40;;;;;;5120698;28;20933;-83
2021/09/17 03:42:54;;;;;;;12.77;7.60;;;20.60;52.30;;;;;;5120351;28;20459;-84
2021/09/17 03:45:21;;;;;;;11.07;7.10;;;20.60;51.80;;;;;;5120207;28;20465;-84
2021/09/17 03:47:48;;;;;;;12.60;6.30;;;20.40;52.20;;;;;;5119300;28;20438;-84
2021/09/17 03:50:15;;;;;;;12.13;6.60;;;20.40;52.00;;;;;;5118686;28;20529;-84
2021/09/17 03:52:42;;;;;;;20.33;8.47;;;20.40;52.30;;;;;;5119173;28;20893;-84
2021/09/17 03:55:09;;;;;;;9.27;6.83;;;20.60;54.00;;;;;;5119648;28;20465;-83
2021/09/17 03:57:38;;;;;;;9.60;6.37;;;20.40;52.60;;;;;;5119706;28;20973;-84
2021/09/17 04:00:06;;;;;;;8.53;5.87;;;20.60;53.10;;;;;;5115687;28;20476;-84
2021/09/17 04:02:33;;;;;;;10.30;7.30;;;20.70;52.30;;;;;;5116339;28;20505;-84
2021/09/17 04:05:00;;;;;;;14.67;7.70;;;20.60;50.70;;;;;;5114968;28;20534;-84
2021/09/17 04:07:27;;;;;;;9.80;6.50;;;20.40;51.20;;;;;;5116183;28;20453;-84
2021/09/17 04:09:54;;;;;;;37.50;6.83;;;20.50;53.80;;;;;;5116651;28;20485;-84
2021/09/17 04:12:21;;;;;;;12.30;8.13;;;20.60;52.00;;;;;;5115910;28;20502;-84
2021/09/17 04:14:49;;;;;;;10.33;6.83;;;20.60;52.20;;;;;;5116116;28;20506;-84
2021/09/17 04:17:16;;;;;;;11.03;7.70;;;20.60;52.20;;;;;;5116315;28;20506;-84
2021/09/17 04:19:43;;;;;;;7.83;6.30;;;20.40;50.90;;;;;;5116503;28;20537;-84
2021/09/17 04:22:11;;;;;;;6.63;5.13;;;20.40;52.00;;;;;;5116287;28;20450;-84
2021/09/17 04:24:38;;;;;;;8.57;6.90;;;20.50;54.30;;;;;;5116123;28;20507;-84
2021/09/17 04:27:05;;;;;;;12.03;7.07;;;20.70;54.30;;;;;;5116226;27;20541;-84
2021/09/17 04:29:32;;;;;;;7.90;6.20;;;20.90;53.20;;;;;;5116149;28;20437;-84
2021/09/17 04:32:01;;;;;;;8.63;6.50;;;20.80;53.10;;;;;;5116315;27;20876;-84
2021/09/17 04:34:28;;;;;;;8.77;5.90;;;20.70;52.60;;;;;;5115449;28;20949;-84
2021/09/17 04:36:55;;;;;;;10.73;6.40;;;20.90;53.30;;;;;;5115699;28;20473;-84
2021/09/17 04:39:22;;;;;;;11.47;6.27;;;21.10;53.80;;;;;;5115484;28;20876;-84
2021/09/17 04:41:49;;;;;;;10.03;7.43;;;21.10;53.20;;;;;;5115690;28;20488;-83
2021/09/17 04:44:16;;;;;;;13.23;7.27;;;20.60;51.30;;;;;;5115749;28;20410;-83
2021/09/17 04:46:43;;;;;;;8.47;6.50;;;20.50;52.10;;;;;;5126115;28;20508;-83
2021/09/17 04:49:11;;;;;;;11.30;7.50;;;20.60;54.80;;;;;;5122341;28;20540;-84
2021/09/17 04:51:38;;;;;;;10.80;6.37;;;20.70;52.70;;;;;;5116124;28;20507;-84
2021/09/17 04:54:05;;;;;;;15.83;6.90;;;20.90;53.40;;;;;;5116217;28;20509;-84
2021/09/17 04:56:32;;;;;;;11.07;7.50;;;21.10;53.30;;;;;;5116031;28;20497;-84
2021/09/17 04:58:59;;;;;;;7.20;5.40;;;20.70;51.70;;;;;;5116839;28;20491;-84
2021/09/17 05:01:26;;;;;;;6.70;5.20;;;20.80;54.40;;;;;;5116209;28;20465;-82
2021/09/17 05:03:54;;;;;;;13.03;5.80;;;21.20;53.30;;;;;;5115893;28;20502;-82
2021/09/17 05:06:22;;;;;;;6.30;5.20;;;21.40;53.50;;;;;;5114929;28;20919;-84
2021/09/17 05:08:49;;;;;;;5.90;5.20;;;21.70;53.20;;;;;;5115242;28;20468;-83
2021/09/17 05:11:16;;;;;;;7.20;5.50;;;21.80;53.10;;;;;;5114239;28;20517;-83
2021/09/17 05:13:43;;;;;;;9.50;5.53;;;21.90;52.60;;;;;;5114377;27;20806;-83
2021/09/17 05:16:10;;;;;;;9.27;5.87;;;21.90;50.80;;;;;;5113870;28;20461;-83
2021/09/17 05:18:37;;;;;;;5.63;4.50;;;21.60;51.90;;;;;;5114758;28;20452;-83
2021/09/17 05:21:04;;;;;;;6.30;4.50;;;21.60;53.10;;;;;;5114417;28;20807;-84
2021/09/17 05:23:33;;;;;;;17.63;6.60;;;22.00;52.90;;;;;;5114511;28;20480;-84
2021/09/17 05:26:02;;;;;;;6.83;6.20;;;22.10;51.90;;;;;;5114975;28;20548;-84
2021/09/17 05:28:29;;;;;;;8.03;6.33;;;22.20;50.80;;;;;;5114663;28;20457;-84
2021/09/17 05:30:56;;;;;;;7.23;6.20;;;22.00;49.00;;;;;;5114176;28;21035;-84
2021/09/17 05:33:23;;;;;;;8.10;6.50;;;21.70;50.20;;;;;;5114395;28;20518;-84
2021/09/17 05:35:50;;;;;;;6.50;5.00;;;21.70;51.80;;;;;;5116920;28;20465;-84
2021/09/17 05:38:17;;;;;;;17.30;5.83;;;21.60;52.10;;;;;;5116995;28;20491;-84
2021/09/17 05:40:45;;;;;;;15.07;6.50;;;21.60;50.80;;;;;;5119163;28;20461;-83
2021/09/17 05:43:12;;;;;;;7.40;5.53;;;21.20;50.30;;;;;;5118680;28;20445;-83
2021/09/17 05:45:39;;;;;;;8.83;6.07;;;21.00;51.50;;;;;;5119209;28;20453;-84
2021/09/17 05:48:06;;;;;;;11.30;7.63;;;20.90;51.30;;;;;;5118553;28;20529;-84
2021/09/17 05:50:33;;;;;;;7.57;6.30;;;21.00;52.60;;;;;;5119017;28;20890;-83
2021/09/17 05:53:00;;;;;;;8.00;6.17;;;21.10;52.20;;;;;;5118118;28;20488;-84
2021/09/17 05:55:28;;;;;;;5.40;5.00;;;21.20;51.50;;;;;;5118624;28;20485;-83
2021/09/17 05:57:57;;;;;;;16.37;7.40;;;20.90;52.50;;;;;;5118376;28;20462;-85
2021/09/17 06:00:25;;;;;;;8.30;7.10;;;20.70;50.30;;;;;;5118588;28;20875;-83
2021/09/17 06:02:52;;;;;;;10.93;8.60;;;20.60;50.60;;;;;;5125709;28;20611;-84
2021/09/17 06:05:19;;;;;;;10.87;7.40;;;20.50;52.30;;;;;;5137832;28;20506;-84
2021/09/17 06:07:46;;;;;;;15.77;8.20;;;20.60;53.70;;;;;;5138110;28;20452;-85
2021/09/17 06:10:14;;;;;;;9.13;7.10;;;20.70;53.30;;;;;;5126475;28;20588;-84
2021/09/17 06:12:41;;;;;;;14.70;7.63;;;20.70;50.60;;;;;;5121822;28;20458;-83
2021/09/17 06:15:11;;;;;;;11.77;7.33;;;20.60;51.20;;;;;;5137761;28;20489;-85
2021/09/17 06:17:40;;;;;;;13.73;7.40;;;20.20;52.80;;;;;;5137929;28;20451;-85
2021/09/17 06:20:10;;;;;;;13.77;7.47;;;20.60;52.20;;;;;;5137690;28;20441;-84
2021/09/17 06:22:39;;;;;;;18.73;7.40;;;20.60;52.20;;;;;;5129404;28;20486;-84
2021/09/17 06:25:07;;;;;;;20.77;6.80;;;20.90;53.20;;;;;;5115124;28;20461;-84
2021/09/17 06:27:34;;;;;;;8.20;6.70;;;20.90;52.20;;;;;;5116650;28;20462;-84
2021/09/17 06:30:00;;;;;;;9.13;6.37;;;20.80;53.00;;;;;;5115913;28;20976;-84
2021/09/17 06:32:29;;;;;;;14.93;8.10;;;21.00;51.90;;;;;;5114051;28;20434;-84
2021/09/17 06:34:58;;;;;;;11.27;7.40;;;21.20;51.80;;;;;;5115957;28;20974;-84
2021/09/17 06:37:25;;;;;;;19.10;7.93;;;21.20;50.30;;;;;;5115812;28;20453;-83
2021/09/17 06:39:52;;;;;;;6.67;5.53;;;20.90;50.50;;;;;;5112976;28;20934;-84
2021/09/17 06:42:19;;;;;;;8.93;6.17;;;20.90;52.00;;;;;;5113259;28;20988;-84
2021/09/17 06:44:45;;;;;;;13.73;7.60;;;21.20;52.80;;;;;;5113061;28;20476;-83
2021/09/17 06:47:13;;;;;;;10.30;7.40;;;21.50;50.40;;;;;;5112573;28;20465;-84
2021/09/17 06:49:41;;;;;;;17.23;8.40;;;21.60;51.60;;;;;;5113650;28;20450;-83
2021/09/17 06:52:09;;;;;;;19.97;8.43;;;21.60;50.10;;;;;;5113545;28;20484;-83
2021/09/17 06:54:36;;;;;;;9.70;7.13;;;21.40;49.30;;;;;;5113141;28;20429;-83
2021/09/17 06:57:03;;;;;;;14.43;9.23;;;21.30;49.80;;;;;;5113623;28;20962;-83
2021/09/17 06:59:30;;;;;;;9.23;6.60;;;21.50;49.80;;;;;;5112761;28;20437;-84
2021/09/17 07:01:56;;;;;;;11.40;7.93;;;21.30;49.70;;;;;;5111698;28;20943;-83
2021/09/17 07:04:23;;;;;;;16.67;8.10;;;21.30;48.70;;;;;;5112977;28;20524;-83
2021/09/17 07:06:52;;;;;;;13.40;7.50;;;21.30;49.50;;;;;;5118620;28;20510;-83
2021/09/17 07:09:19;;;;;;;6.63;5.00;;;21.30;49.50;;;;;;5117812;28;20492;-83
2021/09/17 07:11:45;;;;;;;10.00;7.50;;;21.50;50.80;;;;;;5118570;28;20822;-83
2021/09/17 07:14:12;;;;;;;12.30;7.33;;;21.40;49.50;;;;;;5118520;28;20615;-83
2021/09/17 07:16:39;;;;;;;15.87;7.03;;;21.60;49.20;;;;;;5114320;28;20518;-83
2021/09/17 07:19:06;;;;;;;14.47;7.87;;;21.60;49.50;;;;;;5115397;28;20446;-83
2021/09/17 07:21:33;;;;;;;8.27;7.30;;;21.60;48.80;;;;;;5113579;28;20871;-83
2021/09/17 07:24:01;;;;;;;12.13;7.90;;;21.70;49.90;;;;;;5113903;28;20442;-84
2021/09/17 07:26:29;;;;;;;12.13;7.80;;;21.80;48.00;;;;;;5114405;28;20522;-83
2021/09/17 07:28:55;;;;;;;13.23;8.60;;;21.50;48.90;;;;;;5115162;28;20498;-83
2021/09/17 07:31:22;;;;;;;10.00;8.27;;;21.50;48.70;;;;;;5112889;28;20472;-83
2021/09/17 07:33:50;;;;;;;13.20;7.40;;;21.70;48.40;;;;;;5115240;28;20475;-83
2021/09/17 07:36:17;;;;;;;13.57;7.97;;;21.70;48.50;;;;;;5114560;28;20524;-83
2021/09/17 07:38:44;;;;;;;19.70;7.10;;;21.70;48.30;;;;;;5125890;28;20485;-82
2021/09/17 07:41:12;;;;;;;14.90;8.37;;;22.00;49.10;;;;;;5134521;28;20441;-82
2021/09/17 07:43:39;;;;;;;10.33;7.93;;;21.90;47.60;;;;;;5119400;28;20848;-83
2021/09/17 07:46:06;;;;;;;12.87;8.73;;;21.70;47.40;;;;;;5121175;28;20988;-83
2021/09/17 07:48:34;;;;;;;13.53;8.40;;;21.60;48.20;;;;;;5121457;28;20747;-83
2021/09/17 07:51:01;;;;;;;10.53;7.80;;;21.70;48.50;;;;;;5121638;27;20469;-83
2021/09/17 07:53:28;;;;;;;19.37;8.60;;;21.90;49.50;;;;;;5117161;28;20499;-84
2021/09/17 07:55:54;;;;;;;11.80;8.77;;;22.10;48.10;;;;;;5116771;28;20465;-84
2021/09/17 07:58:23;;;;;;;10.60;8.20;;;21.90;48.30;;;;;;5115856;28;20449;-83
2021/09/17 08:00:50;;;;;;;8.23;5.00;;;22.10;48.50;;;;;;5115228;28;20901;-84
2021/09/17 08:03:18;;;;;;;13.10;8.27;;;22.30;49.10;;;;;;5117407;28;20528;-83
2021/09/17 08:05:45;;;;;;;13.93;8.13;;;22.20;46.60;;;;;;5116077;28;20553;-83
2021/09/17 08:08:12;;;;;;;17.60;10.83;;;22.30;47.20;;;;;;5114640;28;20549;-84
2021/09/17 08:10:39;;;;;;;15.43;9.50;;;22.10;46.40;;;;;;5116515;28;20958;-83
2021/09/17 08:13:06;;;;;;;15.63;8.23;;;22.20;46.50;;;;;;5116532;28;20502;-83
2021/09/17 08:15:34;;;;;;;18.23;8.93;;;22.50;46.80;;;;;;5115015;28;20500;-83
2021/09/17 08:18:01;;;;;;;10.27;7.67;;;22.60;46.90;;;;;;5115835;27;20469;-83
2021/09/17 08:20:28;;;;;;;11.80;7.33;;;23.00;46.30;;;;;;5115721;28;20524;-83
2021/09/17 08:22:55;;;;;;;9.30;7.17;;;23.30;44.80;;;;;;5115023;28;20520;-84
2021/09/17 08:25:22;;;;;;;10.57;8.20;;;23.40;44.10;;;;;;5115503;28;20552;-83
2021/09/17 08:27:49;;;;;;;16.20;8.00;;;23.70;44.80;;;;;;5114456;27;20533;-83
2021/09/17 08:30:16;;;;;;;10.93;7.17;;;23.60;42.70;;;;;;5115339;28;20461;-83
2021/09/17 08:32:44;;;;;;;6.13;5.70;;;23.50;41.70;;;;;;5115484;28;20564;-84
2021/09/17 08:35:12;;;;;;;14.97;7.37;;;23.40;43.00;;;;;;5115170;27;20565;-83
2021/09/17 08:37:39;;;;;;;15.23;7.80;;;23.10;42.70;;;;;;5114149;28;20450;-84
2021/09/17 08:40:08;;;;;;;9.70;6.50;;;23.30;43.00;;;;;;5115131;28;20520;-83
2021/09/17 08:42:35;;;;;;;11.00;7.43;;;23.50;42.30;;;;;;5115302;28;20438;-83
2021/09/17 08:45:02;;;;;;;15.53;7.47;;;23.40;43.20;;;;;;5114313;28;20487;-83
2021/09/17 08:47:29;;;;;;;12.73;7.23;;;23.30;42.70;;;;;;5117053;28;20477;-83
2021/09/17 08:49:57;;;;;;;14.57;7.63;;;23.40;43.10;;;;;;5114941;28;20426;-84
2021/09/17 08:52:24;;;;;;;9.87;7.40;;;23.60;42.90;;;;;;5113740;28;20586;-84
2021/09/17 08:54:51;;;;;;;16.60;7.63;;;23.50;42.30;;;;;;5115905;28;20534;-84
2021/09/17 08:57:18;;;;;;;10.80;6.43;;;23.50;41.10;;;;;;5114672;28;20469;-84
2021/09/17 08:59:45;;;;;;;12.50;7.30;;;23.40;41.60;;;;;;5117104;28;20586;-83
2021/09/17 09:02:23;;;;;;;13.43;8.10;;;23.80;41.80;;;;;;5124437;28;20497;-83
2021/09/17 09:04:59;;;;;;;12.40;7.70;;;23.80;41.50;;;;;;5123887;28;20480;-83
2021/09/17 09:07:30;;;;;;;13.47;7.17;;;24.20;41.80;;;;;;5114861;28;20449;-83
2021/09/17 09:10:08;;;;;;;9.63;5.70;;;24.20;40.80;;;;;;5115024;28;20445;-83
2021/09/17 09:12:35;;;;;;;15.07;7.10;;;24.40;41.30;;;;;;5114837;28;20551;-84
2021/09/17 09:15:16;;;;;;;11.93;7.20;;;24.10;41.00;;;;;;5113665;28;20493;-84
2021/09/17 09:17:44;;;;;;;9.30;6.57;;;24.20;39.90;;;;;;5115015;28;20434;-84
2021/09/17 09:20:23;;;;;;;10.30;6.00;;;24.10;40.10;;;;;;5114730;28;20950;-85
2021/09/17 09:23:08;;;;;;;9.97;4.73;;;24.20;40.30;;;;;;5114611;28;20456;-84
2021/09/17 09:25:36;;;;;;;8.40;6.00;;;24.50;40.20;;;;;;5114475;28;20527;-83
2021/09/17 09:28:14;;;;;;;8.73;5.57;;;24.80;38.80;;;;;;5113962;28;20481;-83
2021/09/17 09:30:41;;;;;;;13.67;5.30;;;25.20;37.80;;;;;;5114434;28;20520;-83
2021/09/17 09:33:29;;;;;;;9.53;5.40;;;25.50;38.50;;;;;;5113981;27;20473;-84
2021/09/17 09:36:02;;;;;;;6.13;4.43;;;25.50;36.30;;;;;;5114295;28;20497;-84
2021/09/17 09:38:38;;;;;;;10.10;4.80;;;25.80;35.40;;;;;;5114297;28;20426;-84
2021/09/17 09:41:07;;;;;;;8.80;5.47;;;26.20;35.10;;;;;;5114736;28;20513;-83
2021/09/17 09:43:36;;;;;;;5.80;4.63;;;26.10;36.10;;;;;;5113416;28;20548;-84
2021/09/17 09:46:29;;;;;;;6.33;4.13;;;26.40;35.30;;;;;;5113950;28;20548;-83
2021/09/17 09:49:25;;;;;;;6.60;5.17;;;26.40;34.30;;;;;;5114529;28;20506;-83
2021/09/17 09:51:56;;;;;;;12.53;5.43;;;26.40;32.80;;;;;;5078079;28;21016;-83
2021/09/17 09:54:24;;;;;;;6.27;4.10;;;26.10;32.40;;;;;;5114677;28;20469;-84
2021/09/17 09:56:51;;;;;;;4.20;3.87;;;26.00;31.90;;;;;;5113538;28;21042;-85
2021/09/17 09:59:23;;;;;;;5.13;3.93;;;25.50;32.80;;;;;;5114415;28;20487;-84
2021/09/17 10:01:53;;;;;;;4.80;3.93;;;25.40;33.40;;;;;;5114755;28;20418;-84
2021/09/17 10:04:22;;;;;;;5.93;4.20;;;25.50;32.40;;;;;;5112184;28;20450;-85
2021/09/17 10:06:55;;;;;;;4.70;4.10;;;25.20;32.50;;;;;;5114432;28;20991;-85
2021/09/17 10:09:23;;;;;;;5.07;4.10;;;25.20;32.30;;;;;;5114759;28;21031;-84
2021/09/17 10:11:51;;;;;;;9.70;4.73;;;25.10;33.80;;;;;;5113933;28;20568;-84
2021/09/17 10:14:18;;;;;;;6.10;4.50;;;24.80;34.10;;;;;;5114284;28;20518;-84
2021/09/17 10:16:48;;;;;;;5.60;4.03;;;24.80;34.10;;;;;;5113774;28;20981;-84
2021/09/17 10:19:20;;;;;;;7.00;4.60;;;25.00;33.70;;;;;;5112875;28;20931;-84
2021/09/17 10:21:58;;;;;;;4.80;3.57;;;25.40;32.40;;;;;;5113655;28;20460;-84
2021/09/17 10:24:48;;;;;;;4.93;3.73;;;25.20;31.10;;;;;;5114140;28;20449;-84
2021/09/17 10:27:25;;;;;;;6.50;4.30;;;24.80;32.70;;;;;;5112370;28;20895;-84
2021/09/17 10:30:00;;;;;;;8.27;3.90;;;25.10;32.10;;;;;;5113840;28;20751;-83
2021/09/17 10:32:46;;;;;;;8.43;3.77;;;24.90;32.40;;;;;;5115257;28;20548;-82
2021/09/17 10:35:15;;;;;;;7.03;4.17;;;24.30;32.70;;;;;;5114117;28;20549;-84
2021/09/17 10:37:51;;;;;;;6.43;3.03;;;24.00;31.90;;;;;;5114130;28;20924;-83
2021/09/17 10:40:33;;;;;;;3.83;3.40;;;24.10;31.60;;;;;;5113974;28;20527;-83
2021/09/17 10:43:15;;;;;;;3.47;3.27;;;24.40;33.10;;;;;;5114092;28;20421;-84
2021/09/17 10:45:42;;;;;;;3.10;2.80;;;24.60;28.90;;;;;;5113483;28;20477;-84
2021/09/17 10:48:10;;;;;;;3.43;3.03;;;24.40;29.00;;;;;;5113889;28;20437;-84
2021/09/17 10:50:49;;;;;;;6.83;3.30;;;24.70;28.90;;;;;;5114435;28;20445;-84
2021/09/17 10:54:03;;;;;;;3.53;3.10;;;24.90;28.50;;;;;;5115361;28;20868;-84
2021/09/17 10:57:03;;;;;;;4.53;3.37;;;25.00;29.20;;;;;;5116456;28;20484;-84
2021/09/17 10:59:41;;;;;;;2.83;2.73;;;25.30;29.30;;;;;;5119399;28;20498;-84
2021/09/17 11:02:09;;;;;;;2.93;2.80;;;25.50;28.70;;;;;;5118163;28;20458;-84
2021/09/17 11:04:37;;;;;;;3.60;3.20;;;25.40;26.60;;;;;;5118621;28;20508;-85
2021/09/17 11:07:33;;;;;;;3.33;3.00;;;25.40;27.70;;;;;;5117367;28;20480;-84
2021/09/17 11:10:01;;;;;;;3.53;3.03;;;25.40;28.30;;;;;;5119370;28;20441;-84
2021/09/17 11:12:31;;;;;;;4.03;3.10;;;24.80;30.50;;;;;;5117713;28;20508;-84
2021/09/17 11:15:00;;;;;;;4.30;3.53;;;24.80;30.90;;;;;;5119962;28;20485;-84
2021/09/17 11:17:41;;;;;;;3.70;3.50;;;24.60;31.20;;;;;;5123749;28;20434;-84
2021/09/17 11:20:12;;;;;;;4.20;3.47;;;24.10;32.30;;;;;;5122403;28;20414;-84
2021/09/17 11:22:57;;;;;;;5.20;3.20;;;24.50;30.10;;;;;;5136799;28;20414;-85
2021/09/17 11:25:30;;;;;;;7.37;4.03;;;24.70;31.00;;;;;;5142326;28;20453;-85
2021/09/17 11:27:59;;;;;;;4.90;3.67;;;24.80;31.60;;;;;;5140440;28;20437;-84
2021/09/17 11:30:27;;;;;;;6.13;4.00;;;24.60;31.60;;;;;;5125760;27;20550;-84
2021/09/17 11:32:55;;;;;;;4.97;4.40;;;24.60;31.10;;;;;;5136235;28;20465;-83
2021/09/17 11:35:22;;;;;;;5.80;4.10;;;23.30;32.80;;;;;;5141862;28;20484;-85
2021/09/17 11:37:54;;;;;;;4.17;3.93;;;23.50;33.00;;;;;;5141765;28;20449;-84
2021/09/17 11:40:22;;;;;;;8.50;3.87;;;24.30;31.00;;;;;;5141307;28;20418;-83
2021/09/17 11:42:49;;;;;;;5.93;4.20;;;23.90;33.30;;;;;;5123402;28;20442;-83
2021/09/17 11:45:19;;;;;;;8.00;3.83;;;24.00;29.90;;;;;;5123234;28;20454;-83
2021/09/17 11:47:48;;;;;;;5.20;4.47;;;24.00;30.50;;;;;;5118813;28;20862;-83
2021/09/17 11:50:16;;;;;;;5.23;4.60;;;24.10;32.20;;;;;;5116436;28;20496;-83
2021/09/17 11:52:47;;;;;;;4.73;4.00;;;24.30;31.60;;;;;;5117439;28;20469;-83
2021/09/17 11:55:17;;;;;;;6.10;4.37;;;23.70;31.70;;;;;;5116799;28;20901;-83
2021/09/17 11:57:46;;;;;;;6.67;4.00;;;23.50;33.00;;;;;;5117025;28;20438;-83
2021/09/17 12:00:15;;;;;;;5.67;4.20;;;23.90;33.00;;;;;;5116180;28;20508;-83
2021/09/17 12:02:44;;;;;;;3.77;3.57;;;24.60;31.20;;;;;;5117871;28;20524;-83
2021/09/17 12:05:16;;;;;;;6.43;4.40;;;24.40;30.50;;;;;;5116031;28;20537;-84
2021/09/17 12:07:43;;;;;;;5.10;4.53;;;24.50;29.30;;;;;;5117057;28;20457;-84
2021/09/17 12:10:13;;;;;;;4.10;3.60;;;24.60;30.00;;;;;;5116141;27;20536;-84
2021/09/17 12:12:45;;;;;;;8.10;3.70;;;25.00;30.00;;;;;;5117449;28;20561;-84
2021/09/17 12:15:13;;;;;;;6.93;3.80;;;25.10;31.40;;;;;;5115977;28;20472;-84
2021/09/17 12:17:56;;;;;;;5.63;3.70;;;25.50;29.30;;;;;;5116059;28;20544;-84
2021/09/17 12:20:37;;;;;;;4.80;4.17;;;25.30;29.10;;;;;;5115995;28;20429;-84
2021/09/17 12:23:04;;;;;;;5.70;3.50;;;25.40;30.10;;;;;;5118671;28;20506;-84
2021/09/17 12:25:32;;;;;;;4.17;3.93;;;25.40;30.00;;;;;;5116930;28;20469;-84
2021/09/17 12:28:01;;;;;;;5.30;4.33;;;25.40;29.70;;;;;;5116121;28;20494;-84
2021/09/17 12:30:31;;;;;;;11.13;4.37;;;25.40;29.00;;;;;;5117016;28;20449;-85
2021/09/17 12:33:11;;;;;;;6.10;4.50;;;25.50;28.90;;;;;;5121201;28;20553;-84
2021/09/17 12:35:39;;;;;;;4.80;4.23;;;25.50;29.20;;;;;;5121470;28;20552;-84
2021/09/17 12:38:07;;;;;;;4.80;4.03;;;25.60;28.90;;;;;;5123094;28;20430;-84
2021/09/17 12:40:38;;;;;;;3.80;3.67;;;25.50;28.90;;;;;;5121091;28;20480;-84
2021/09/17 12:43:07;;;;;;;4.73;3.63;;;25.20;29.30;;;;;;5119593;28;20782;-84
2021/09/17 12:45:35;;;;;;;5.57;4.03;;;25.00;29.50;;;;;;5118575;28;20456;-84
2021/09/17 12:48:05;;;;;;;11.83;3.57;;;24.50;30.10;;;;;;5119500;28;20429;-84
2021/09/17 12:50:37;;;;;;;7.07;4.47;;;23.80;30.50;;;;;;5117821;28;20465;-83
2021/09/17 12:53:08;;;;;;;7.90;3.67;;;23.90;30.80;;;;;;5117309;27;20528;-84